sensor_id;sensor_type;location;lat;lon;timestamp;P1;durP1;ratioP1;P2;durP2;ratioP2
33740;SDS011;20065;48.380;10.892;2023-07-28T00:01:04;5.70;;;3.77;;
33740;SDS011;20065;48.380;10.892;2023-07-28T00:03:51;6.20;;;4.03;;
33740;SDS011;20065;48.380;10.892;2023-07-28T00:06:38;6.40;;;3.50;;
33740;SDS011;20065;48.380;10.892;2023-07-28T00:09:26;6.03;;;4.13;;
33740;SDS011;20065;48.380;10.892;2023-07-28T00:12:12;5.50;;;3.77;;
33740;SDS011;20065;48.380;10.892;2023-07-28T00:14:59;8.73;;;3.27;;
33740;SDS011;20065;48.380;10.892;2023-07-28T00:17:46;5.80;;;3.40;;
33740;SDS011;20065;48.380;10.892;2023-07-28T00:20:32;6.87;;;4.07;;
33740;SDS011;20065;48.380;10.892;2023-07-28T00:23:19;7.87;;;4.20;;
33740;SDS011;20065;48.380;10.892;2023-07-28T00:26:06;7.27;;;4.20;;
33740;SDS011;20065;48.380;10.892;2023-07-28T00:32:31;6.30;;;4.33;;
33740;SDS011;20065;48.380;10.892;2023-07-28T00:35:17;6.00;;;3.63;;
33740;SDS011;20065;48.380;10.892;2023-07-28T00:38:03;8.77;;;3.90;;
33740;SDS011;20065;48.380;10.892;2023-07-28T00:40:50;8.73;;;4.60;;
33740;SDS011;20065;48.380;10.892;2023-07-28T00:43:39;9.80;;;3.83;;
33740;SDS011;20065;48.380;10.892;2023-07-28T00:46:25;6.43;;;4.07;;
33740;SDS011;20065;48.380;10.892;2023-07-28T00:49:11;6.27;;;3.80;;
33740;SDS011;20065;48.380;10.892;2023-07-28T00:51:58;7.60;;;4.43;;
33740;SDS011;20065;48.380;10.892;2023-07-28T00:54:44;5.57;;;4.10;;
33740;SDS011;20065;48.380;10.892;2023-07-28T00:57:30;6.33;;;3.97;;
33740;SDS011;20065;48.380;10.892;2023-07-28T01:00:17;6.90;;;4.00;;
33740;SDS011;20065;48.380;10.892;2023-07-28T01:03:03;5.93;;;3.80;;
33740;SDS011;20065;48.380;10.892;2023-07-28T01:11:52;6.83;;;4.53;;
33740;SDS011;20065;48.380;10.892;2023-07-28T01:14:43;6.50;;;4.10;;
33740;SDS011;20065;48.380;10.892;2023-07-28T01:17:30;7.30;;;3.90;;
33740;SDS011;20065;48.380;10.892;2023-07-28T01:20:16;5.13;;;3.80;;
33740;SDS011;20065;48.380;10.892;2023-07-28T01:26:09;5.60;;;3.30;;
33740;SDS011;20065;48.380;10.892;2023-07-28T01:28:57;6.50;;;3.87;;
33740;SDS011;20065;48.380;10.892;2023-07-28T01:31:46;8.80;;;3.73;;
33740;SDS011;20065;48.380;10.892;2023-07-28T01:34:33;7.37;;;4.60;;
33740;SDS011;20065;48.380;10.892;2023-07-28T01:37:19;7.13;;;3.90;;
33740;SDS011;20065;48.380;10.892;2023-07-28T01:40:06;6.53;;;4.07;;
33740;SDS011;20065;48.380;10.892;2023-07-28T01:42:53;10.20;;;3.60;;
33740;SDS011;20065;48.380;10.892;2023-07-28T01:45:39;8.17;;;4.30;;
33740;SDS011;20065;48.380;10.892;2023-07-28T01:48:29;5.73;;;3.50;;
33740;SDS011;20065;48.380;10.892;2023-07-28T01:51:15;7.10;;;4.33;;
33740;SDS011;20065;48.380;10.892;2023-07-28T01:54:02;6.10;;;3.50;;
33740;SDS011;20065;48.380;10.892;2023-07-28T01:56:48;9.57;;;4.17;;
33740;SDS011;20065;48.380;10.892;2023-07-28T01:59:34;7.70;;;4.13;;
33740;SDS011;20065;48.380;10.892;2023-07-28T02:02:20;8.33;;;4.07;;
33740;SDS011;20065;48.380;10.892;2023-07-28T02:05:07;7.67;;;3.30;;
33740;SDS011;20065;48.380;10.892;2023-07-28T02:07:54;7.73;;;4.07;;
33740;SDS011;20065;48.380;10.892;2023-07-28T02:10:42;5.60;;;3.67;;
33740;SDS011;20065;48.380;10.892;2023-07-28T02:13:30;6.53;;;4.13;;
33740;SDS011;20065;48.380;10.892;2023-07-28T02:16:16;6.17;;;3.93;;
33740;SDS011;20065;48.380;10.892;2023-07-28T02:19:02;7.10;;;4.10;;
33740;SDS011;20065;48.380;10.892;2023-07-28T02:21:48;5.10;;;3.20;;
33740;SDS011;20065;48.380;10.892;2023-07-28T02:24:34;6.03;;;3.60;;
33740;SDS011;20065;48.380;10.892;2023-07-28T02:27:21;7.10;;;3.70;;
33740;SDS011;20065;48.380;10.892;2023-07-28T02:30:07;5.40;;;3.53;;
33740;SDS011;20065;48.380;10.892;2023-07-28T02:32:53;7.50;;;3.73;;
33740;SDS011;20065;48.380;10.892;2023-07-28T02:35:40;7.50;;;4.17;;
33740;SDS011;20065;48.380;10.892;2023-07-28T02:38:26;5.23;;;3.53;;
33740;SDS011;20065;48.380;10.892;2023-07-28T02:41:12;6.90;;;4.03;;
33740;SDS011;20065;48.380;10.892;2023-07-28T02:43:58;7.17;;;4.07;;
33740;SDS011;20065;48.380;10.892;2023-07-28T02:46:45;7.90;;;4.50;;
33740;SDS011;20065;48.380;10.892;2023-07-28T02:49:31;7.60;;;4.30;;
33740;SDS011;20065;48.380;10.892;2023-07-28T02:52:17;6.13;;;4.03;;
33740;SDS011;20065;48.380;10.892;2023-07-28T02:55:03;8.53;;;3.67;;
33740;SDS011;20065;48.380;10.892;2023-07-28T02:57:50;6.00;;;4.03;;
33740;SDS011;20065;48.380;10.892;2023-07-28T03:00:37;6.83;;;4.37;;
33740;SDS011;20065;48.380;10.892;2023-07-28T03:03:24;8.93;;;4.00;;
33740;SDS011;20065;48.380;10.892;2023-07-28T03:06:10;6.40;;;3.90;;
33740;SDS011;20065;48.380;10.892;2023-07-28T03:08:58;5.90;;;4.13;;
33740;SDS011;20065;48.380;10.892;2023-07-28T03:12:10;8.60;;;4.10;;
33740;SDS011;20065;48.380;10.892;2023-07-28T03:14:57;6.17;;;4.10;;
33740;SDS011;20065;48.380;10.892;2023-07-28T03:17:43;5.70;;;3.90;;
33740;SDS011;20065;48.380;10.892;2023-07-28T03:20:29;6.83;;;4.00;;
33740;SDS011;20065;48.380;10.892;2023-07-28T03:23:15;7.87;;;4.30;;
33740;SDS011;20065;48.380;10.892;2023-07-28T03:26:02;5.10;;;3.40;;
33740;SDS011;20065;48.380;10.892;2023-07-28T03:28:48;6.17;;;3.40;;
33740;SDS011;20065;48.380;10.892;2023-07-28T03:31:34;5.80;;;3.63;;
33740;SDS011;20065;48.380;10.892;2023-07-28T03:34:22;6.33;;;3.60;;
33740;SDS011;20065;48.380;10.892;2023-07-28T03:37:09;6.33;;;4.20;;
33740;SDS011;20065;48.380;10.892;2023-07-28T03:39:57;6.47;;;3.60;;
33740;SDS011;20065;48.380;10.892;2023-07-28T03:42:50;5.50;;;3.73;;
33740;SDS011;20065;48.380;10.892;2023-07-28T03:45:37;5.07;;;3.77;;
33740;SDS011;20065;48.380;10.892;2023-07-28T03:48:23;7.53;;;4.00;;
33740;SDS011;20065;48.380;10.892;2023-07-28T03:51:09;8.97;;;4.33;;
33740;SDS011;20065;48.380;10.892;2023-07-28T03:53:55;6.97;;;3.60;;
33740;SDS011;20065;48.380;10.892;2023-07-28T03:56:41;7.30;;;4.30;;
33740;SDS011;20065;48.380;10.892;2023-07-28T03:59:28;8.50;;;4.33;;
33740;SDS011;20065;48.380;10.892;2023-07-28T04:02:14;6.67;;;3.80;;
33740;SDS011;20065;48.380;10.892;2023-07-28T04:05:00;7.50;;;4.30;;
33740;SDS011;20065;48.380;10.892;2023-07-28T04:07:46;7.17;;;4.40;;
33740;SDS011;20065;48.380;10.892;2023-07-28T04:10:32;4.83;;;3.50;;
33740;SDS011;20065;48.380;10.892;2023-07-28T04:13:18;5.40;;;3.80;;
33740;SDS011;20065;48.380;10.892;2023-07-28T04:16:05;6.83;;;3.97;;
33740;SDS011;20065;48.380;10.892;2023-07-28T04:18:51;6.10;;;4.20;;
33740;SDS011;20065;48.380;10.892;2023-07-28T04:21:37;7.50;;;4.03;;
33740;SDS011;20065;48.380;10.892;2023-07-28T04:24:26;5.60;;;3.53;;
33740;SDS011;20065;48.380;10.892;2023-07-28T04:27:12;6.10;;;3.70;;
33740;SDS011;20065;48.380;10.892;2023-07-28T04:29:58;5.47;;;3.40;;
33740;SDS011;20065;48.380;10.892;2023-07-28T04:32:45;6.20;;;4.07;;
33740;SDS011;20065;48.380;10.892;2023-07-28T04:35:36;5.80;;;3.40;;
33740;SDS011;20065;48.380;10.892;2023-07-28T04:38:32;5.47;;;3.70;;
33740;SDS011;20065;48.380;10.892;2023-07-28T04:41:19;6.73;;;3.40;;
33740;SDS011;20065;48.380;10.892;2023-07-28T04:44:11;5.90;;;4.10;;
33740;SDS011;20065;48.380;10.892;2023-07-28T04:47:01;7.33;;;3.90;;
33740;SDS011;20065;48.380;10.892;2023-07-28T04:49:47;6.80;;;4.20;;
33740;SDS011;20065;48.380;10.892;2023-07-28T04:52:52;4.77;;;3.67;;
33740;SDS011;20065;48.380;10.892;2023-07-28T04:56:05;6.83;;;4.17;;
33740;SDS011;20065;48.380;10.892;2023-07-28T04:58:51;5.50;;;4.07;;
33740;SDS011;20065;48.380;10.892;2023-07-28T05:01:37;6.90;;;3.90;;
33740;SDS011;20065;48.380;10.892;2023-07-28T05:04:23;6.23;;;3.47;;
33740;SDS011;20065;48.380;10.892;2023-07-28T05:07:10;5.80;;;3.50;;
33740;SDS011;20065;48.380;10.892;2023-07-28T05:09:56;5.70;;;3.47;;
33740;SDS011;20065;48.380;10.892;2023-07-28T05:12:45;6.53;;;3.77;;
33740;SDS011;20065;48.380;10.892;2023-07-28T05:15:31;5.60;;;3.57;;
33740;SDS011;20065;48.380;10.892;2023-07-28T05:18:18;6.20;;;4.10;;
33740;SDS011;20065;48.380;10.892;2023-07-28T05:21:31;6.17;;;3.57;;
33740;SDS011;20065;48.380;10.892;2023-07-28T05:24:17;6.00;;;3.83;;
33740;SDS011;20065;48.380;10.892;2023-07-28T05:27:18;5.33;;;3.20;;
33740;SDS011;20065;48.380;10.892;2023-07-28T05:30:06;6.47;;;3.73;;
33740;SDS011;20065;48.380;10.892;2023-07-28T05:32:54;9.40;;;4.60;;
33740;SDS011;20065;48.380;10.892;2023-07-28T05:35:58;7.60;;;3.90;;
33740;SDS011;20065;48.380;10.892;2023-07-28T05:38:50;6.07;;;3.67;;
33740;SDS011;20065;48.380;10.892;2023-07-28T05:41:39;7.40;;;3.60;;
33740;SDS011;20065;48.380;10.892;2023-07-28T05:44:28;6.00;;;3.40;;
33740;SDS011;20065;48.380;10.892;2023-07-28T05:47:14;5.43;;;3.43;;
33740;SDS011;20065;48.380;10.892;2023-07-28T05:50:00;8.03;;;3.50;;
33740;SDS011;20065;48.380;10.892;2023-07-28T05:52:47;5.13;;;3.50;;
33740;SDS011;20065;48.380;10.892;2023-07-28T05:55:33;6.07;;;3.83;;
33740;SDS011;20065;48.380;10.892;2023-07-28T05:58:19;5.13;;;3.33;;
33740;SDS011;20065;48.380;10.892;2023-07-28T06:01:06;8.93;;;3.03;;
33740;SDS011;20065;48.380;10.892;2023-07-28T06:04:25;6.00;;;3.77;;
33740;SDS011;20065;48.380;10.892;2023-07-28T06:07:15;6.03;;;3.53;;
33740;SDS011;20065;48.380;10.892;2023-07-28T06:10:03;6.53;;;3.10;;
33740;SDS011;20065;48.380;10.892;2023-07-28T06:12:49;6.00;;;3.53;;
33740;SDS011;20065;48.380;10.892;2023-07-28T06:15:38;5.30;;;3.20;;
33740;SDS011;20065;48.380;10.892;2023-07-28T06:18:25;5.43;;;3.47;;
33740;SDS011;20065;48.380;10.892;2023-07-28T06:21:23;4.37;;;3.00;;
33740;SDS011;20065;48.380;10.892;2023-07-28T06:24:10;5.77;;;3.30;;
33740;SDS011;20065;48.380;10.892;2023-07-28T06:26:56;5.00;;;3.20;;
33740;SDS011;20065;48.380;10.892;2023-07-28T06:29:42;7.37;;;2.97;;
33740;SDS011;20065;48.380;10.892;2023-07-28T06:32:28;5.23;;;2.93;;
33740;SDS011;20065;48.380;10.892;2023-07-28T06:35:15;8.00;;;3.37;;
33740;SDS011;20065;48.380;10.892;2023-07-28T06:38:01;4.20;;;2.40;;
33740;SDS011;20065;48.380;10.892;2023-07-28T06:40:48;4.53;;;2.90;;
33740;SDS011;20065;48.380;10.892;2023-07-28T06:43:34;4.93;;;3.43;;
33740;SDS011;20065;48.380;10.892;2023-07-28T06:46:21;4.33;;;2.73;;
33740;SDS011;20065;48.380;10.892;2023-07-28T06:49:07;5.13;;;3.03;;
33740;SDS011;20065;48.380;10.892;2023-07-28T06:51:53;10.00;;;3.07;;
33740;SDS011;20065;48.380;10.892;2023-07-28T06:54:40;5.13;;;2.90;;
33740;SDS011;20065;48.380;10.892;2023-07-28T06:57:26;5.07;;;3.43;;
33740;SDS011;20065;48.380;10.892;2023-07-28T07:00:13;4.00;;;2.80;;
33740;SDS011;20065;48.380;10.892;2023-07-28T07:03:00;4.97;;;2.83;;
33740;SDS011;20065;48.380;10.892;2023-07-28T07:05:46;6.20;;;3.10;;
33740;SDS011;20065;48.380;10.892;2023-07-28T07:08:32;6.33;;;2.90;;
33740;SDS011;20065;48.380;10.892;2023-07-28T07:11:18;5.30;;;2.67;;
33740;SDS011;20065;48.380;10.892;2023-07-28T07:14:04;7.67;;;2.73;;
33740;SDS011;20065;48.380;10.892;2023-07-28T07:16:51;4.80;;;2.80;;
33740;SDS011;20065;48.380;10.892;2023-07-28T07:19:37;7.10;;;3.30;;
33740;SDS011;20065;48.380;10.892;2023-07-28T07:22:23;6.63;;;2.90;;
33740;SDS011;20065;48.380;10.892;2023-07-28T07:25:09;4.63;;;2.63;;
33740;SDS011;20065;48.380;10.892;2023-07-28T07:27:55;5.27;;;2.50;;
33740;SDS011;20065;48.380;10.892;2023-07-28T07:30:42;4.20;;;2.63;;
33740;SDS011;20065;48.380;10.892;2023-07-28T07:33:28;4.97;;;3.13;;
33740;SDS011;20065;48.380;10.892;2023-07-28T07:36:15;6.30;;;2.90;;
33740;SDS011;20065;48.380;10.892;2023-07-28T07:39:02;4.47;;;2.63;;
33740;SDS011;20065;48.380;10.892;2023-07-28T07:41:50;5.20;;;3.03;;
33740;SDS011;20065;48.380;10.892;2023-07-28T07:44:36;5.43;;;3.07;;
33740;SDS011;20065;48.380;10.892;2023-07-28T07:47:23;6.93;;;3.10;;
33740;SDS011;20065;48.380;10.892;2023-07-28T07:50:09;5.60;;;3.50;;
33740;SDS011;20065;48.380;10.892;2023-07-28T07:52:56;4.00;;;2.60;;
33740;SDS011;20065;48.380;10.892;2023-07-28T07:55:43;12.43;;;3.30;;
33740;SDS011;20065;48.380;10.892;2023-07-28T07:58:29;4.70;;;3.00;;
33740;SDS011;20065;48.380;10.892;2023-07-28T08:01:15;5.87;;;3.60;;
33740;SDS011;20065;48.380;10.892;2023-07-28T08:04:01;4.90;;;3.13;;
33740;SDS011;20065;48.380;10.892;2023-07-28T08:06:48;6.97;;;2.33;;
33740;SDS011;20065;48.380;10.892;2023-07-28T08:09:35;5.90;;;2.50;;
33740;SDS011;20065;48.380;10.892;2023-07-28T08:12:22;4.07;;;2.70;;
33740;SDS011;20065;48.380;10.892;2023-07-28T08:15:08;3.70;;;2.70;;
33740;SDS011;20065;48.380;10.892;2023-07-28T08:17:55;5.90;;;3.40;;
33740;SDS011;20065;48.380;10.892;2023-07-28T08:20:41;6.90;;;3.13;;
33740;SDS011;20065;48.380;10.892;2023-07-28T08:23:27;5.20;;;2.90;;
33740;SDS011;20065;48.380;10.892;2023-07-28T08:26:14;6.33;;;3.73;;
33740;SDS011;20065;48.380;10.892;2023-07-28T08:29:00;4.57;;;3.10;;
33740;SDS011;20065;48.380;10.892;2023-07-28T08:31:46;4.17;;;2.53;;
33740;SDS011;20065;48.380;10.892;2023-07-28T08:34:33;4.67;;;2.33;;
33740;SDS011;20065;48.380;10.892;2023-07-28T08:37:19;4.17;;;2.43;;
33740;SDS011;20065;48.380;10.892;2023-07-28T08:40:05;4.63;;;2.57;;
33740;SDS011;20065;48.380;10.892;2023-07-28T08:42:52;4.23;;;2.80;;
33740;SDS011;20065;48.380;10.892;2023-07-28T08:45:39;5.37;;;2.80;;
33740;SDS011;20065;48.380;10.892;2023-07-28T08:48:25;6.00;;;3.17;;
33740;SDS011;20065;48.380;10.892;2023-07-28T08:51:12;7.17;;;2.87;;
33740;SDS011;20065;48.380;10.892;2023-07-28T08:53:59;5.40;;;3.03;;
33740;SDS011;20065;48.380;10.892;2023-07-28T08:56:46;5.40;;;2.60;;
33740;SDS011;20065;48.380;10.892;2023-07-28T08:59:33;5.27;;;2.60;;
33740;SDS011;20065;48.380;10.892;2023-07-28T09:02:20;8.10;;;2.70;;
33740;SDS011;20065;48.380;10.892;2023-07-28T09:05:07;4.63;;;2.57;;
33740;SDS011;20065;48.380;10.892;2023-07-28T09:08:02;6.30;;;2.93;;
33740;SDS011;20065;48.380;10.892;2023-07-28T09:10:48;4.40;;;2.60;;
33740;SDS011;20065;48.380;10.892;2023-07-28T09:13:36;4.27;;;2.97;;
33740;SDS011;20065;48.380;10.892;2023-07-28T09:16:25;5.90;;;3.03;;
33740;SDS011;20065;48.380;10.892;2023-07-28T09:19:11;4.83;;;2.87;;
33740;SDS011;20065;48.380;10.892;2023-07-28T09:22:01;4.33;;;2.50;;
33740;SDS011;20065;48.380;10.892;2023-07-28T09:24:48;3.80;;;2.40;;
33740;SDS011;20065;48.380;10.892;2023-07-28T09:27:35;4.43;;;2.77;;
33740;SDS011;20065;48.380;10.892;2023-07-28T09:30:22;7.27;;;2.90;;
33740;SDS011;20065;48.380;10.892;2023-07-28T09:33:09;3.90;;;2.80;;
33740;SDS011;20065;48.380;10.892;2023-07-28T09:35:55;4.43;;;2.50;;
33740;SDS011;20065;48.380;10.892;2023-07-28T09:38:43;4.47;;;2.60;;
33740;SDS011;20065;48.380;10.892;2023-07-28T09:41:29;3.80;;;2.50;;
33740;SDS011;20065;48.380;10.892;2023-07-28T09:44:16;5.20;;;2.83;;
33740;SDS011;20065;48.380;10.892;2023-07-28T09:47:02;6.70;;;2.90;;
33740;SDS011;20065;48.380;10.892;2023-07-28T09:49:49;5.93;;;2.63;;
33740;SDS011;20065;48.380;10.892;2023-07-28T09:52:39;4.07;;;2.70;;
33740;SDS011;20065;48.380;10.892;2023-07-28T09:55:29;5.57;;;3.33;;
33740;SDS011;20065;48.380;10.892;2023-07-28T09:58:16;5.60;;;2.67;;
33740;SDS011;20065;48.380;10.892;2023-07-28T10:01:05;6.80;;;3.40;;
33740;SDS011;20065;48.380;10.892;2023-07-28T10:03:51;4.63;;;2.57;;
33740;SDS011;20065;48.380;10.892;2023-07-28T10:06:38;4.97;;;2.80;;
33740;SDS011;20065;48.380;10.892;2023-07-28T10:09:25;5.03;;;2.90;;
33740;SDS011;20065;48.380;10.892;2023-07-28T10:12:21;6.53;;;3.20;;
33740;SDS011;20065;48.380;10.892;2023-07-28T10:15:15;5.20;;;3.27;;
33740;SDS011;20065;48.380;10.892;2023-07-28T10:18:03;4.70;;;3.17;;
33740;SDS011;20065;48.380;10.892;2023-07-28T10:20:52;5.27;;;3.20;;
33740;SDS011;20065;48.380;10.892;2023-07-28T10:23:39;4.63;;;2.80;;
33740;SDS011;20065;48.380;10.892;2023-07-28T10:26:34;7.47;;;3.00;;
33740;SDS011;20065;48.380;10.892;2023-07-28T10:29:24;4.23;;;2.40;;
33740;SDS011;20065;48.380;10.892;2023-07-28T10:32:10;4.97;;;2.80;;
33740;SDS011;20065;48.380;10.892;2023-07-28T10:37:58;5.37;;;2.83;;
33740;SDS011;20065;48.380;10.892;2023-07-28T10:41:05;5.67;;;2.77;;
33740;SDS011;20065;48.380;10.892;2023-07-28T10:43:52;3.90;;;2.90;;
33740;SDS011;20065;48.380;10.892;2023-07-28T10:46:39;5.40;;;3.00;;
33740;SDS011;20065;48.380;10.892;2023-07-28T10:49:25;4.20;;;2.60;;
33740;SDS011;20065;48.380;10.892;2023-07-28T10:52:12;4.90;;;2.87;;
33740;SDS011;20065;48.380;10.892;2023-07-28T10:54:58;6.10;;;3.30;;
33740;SDS011;20065;48.380;10.892;2023-07-28T10:57:57;5.33;;;3.00;;
33740;SDS011;20065;48.380;10.892;2023-07-28T11:00:44;5.60;;;2.80;;
33740;SDS011;20065;48.380;10.892;2023-07-28T11:03:31;6.73;;;2.70;;
33740;SDS011;20065;48.380;10.892;2023-07-28T11:06:17;4.87;;;3.10;;
33740;SDS011;20065;48.380;10.892;2023-07-28T11:09:08;5.53;;;3.13;;
33740;SDS011;20065;48.380;10.892;2023-07-28T11:11:55;5.80;;;3.00;;
33740;SDS011;20065;48.380;10.892;2023-07-28T11:14:41;4.87;;;2.80;;
33740;SDS011;20065;48.380;10.892;2023-07-28T11:17:27;4.77;;;3.10;;
33740;SDS011;20065;48.380;10.892;2023-07-28T11:23:03;4.53;;;2.60;;
33740;SDS011;20065;48.380;10.892;2023-07-28T11:25:50;5.93;;;3.27;;
33740;SDS011;20065;48.380;10.892;2023-07-28T11:28:36;4.93;;;2.90;;
33740;SDS011;20065;48.380;10.892;2023-07-28T11:31:38;5.97;;;2.93;;
33740;SDS011;20065;48.380;10.892;2023-07-28T11:34:41;5.83;;;3.10;;
33740;SDS011;20065;48.380;10.892;2023-07-28T11:37:42;5.40;;;3.30;;
33740;SDS011;20065;48.380;10.892;2023-07-28T11:41:12;4.57;;;3.10;;
33740;SDS011;20065;48.380;10.892;2023-07-28T11:44:00;5.70;;;3.60;;
33740;SDS011;20065;48.380;10.892;2023-07-28T11:46:51;4.50;;;2.93;;
33740;SDS011;20065;48.380;10.892;2023-07-28T11:49:50;5.90;;;3.90;;
33740;SDS011;20065;48.380;10.892;2023-07-28T11:52:39;4.93;;;2.73;;
33740;SDS011;20065;48.380;10.892;2023-07-28T11:55:25;5.33;;;3.43;;
33740;SDS011;20065;48.380;10.892;2023-07-28T11:58:12;6.17;;;3.40;;
33740;SDS011;20065;48.380;10.892;2023-07-28T12:00:59;4.20;;;2.97;;
33740;SDS011;20065;48.380;10.892;2023-07-28T12:03:53;4.17;;;2.83;;
33740;SDS011;20065;48.380;10.892;2023-07-28T12:09:51;13.23;;;3.53;;
33740;SDS011;20065;48.380;10.892;2023-07-28T12:12:45;5.70;;;3.27;;
33740;SDS011;20065;48.380;10.892;2023-07-28T12:15:33;5.50;;;3.07;;
33740;SDS011;20065;48.380;10.892;2023-07-28T12:18:20;4.83;;;3.50;;
33740;SDS011;20065;48.380;10.892;2023-07-28T12:21:08;6.00;;;3.37;;
33740;SDS011;20065;48.380;10.892;2023-07-28T12:23:54;5.40;;;3.23;;
33740;SDS011;20065;48.380;10.892;2023-07-28T12:26:41;7.43;;;3.17;;
33740;SDS011;20065;48.380;10.892;2023-07-28T12:29:27;7.07;;;2.90;;
33740;SDS011;20065;48.380;10.892;2023-07-28T12:32:13;6.17;;;3.60;;
33740;SDS011;20065;48.380;10.892;2023-07-28T12:34:59;4.60;;;2.90;;
33740;SDS011;20065;48.380;10.892;2023-07-28T12:37:45;7.07;;;3.67;;
33740;SDS011;20065;48.380;10.892;2023-07-28T12:40:32;5.23;;;3.10;;
33740;SDS011;20065;48.380;10.892;2023-07-28T12:43:19;5.10;;;3.20;;
33740;SDS011;20065;48.380;10.892;2023-07-28T12:46:05;4.40;;;2.70;;
33740;SDS011;20065;48.380;10.892;2023-07-28T12:48:51;5.03;;;3.30;;
33740;SDS011;20065;48.380;10.892;2023-07-28T12:51:38;5.37;;;3.00;;
33740;SDS011;20065;48.380;10.892;2023-07-28T12:54:25;5.83;;;3.00;;
33740;SDS011;20065;48.380;10.892;2023-07-28T12:57:11;5.70;;;2.90;;
33740;SDS011;20065;48.380;10.892;2023-07-28T12:59:58;4.80;;;2.87;;
33740;SDS011;20065;48.380;10.892;2023-07-28T13:02:44;4.83;;;3.27;;
33740;SDS011;20065;48.380;10.892;2023-07-28T13:05:40;7.27;;;3.67;;
33740;SDS011;20065;48.380;10.892;2023-07-28T13:08:28;6.37;;;3.33;;
33740;SDS011;20065;48.380;10.892;2023-07-28T13:11:15;6.73;;;3.37;;
33740;SDS011;20065;48.380;10.892;2023-07-28T13:14:01;5.43;;;3.20;;
33740;SDS011;20065;48.380;10.892;2023-07-28T13:16:48;6.77;;;3.57;;
33740;SDS011;20065;48.380;10.892;2023-07-28T13:19:35;6.20;;;4.17;;
33740;SDS011;20065;48.380;10.892;2023-07-28T13:22:21;10.13;;;4.20;;
33740;SDS011;20065;48.380;10.892;2023-07-28T13:25:07;5.43;;;3.70;;
33740;SDS011;20065;48.380;10.892;2023-07-28T13:27:54;7.53;;;4.67;;
33740;SDS011;20065;48.380;10.892;2023-07-28T13:30:40;7.50;;;4.43;;
33740;SDS011;20065;48.380;10.892;2023-07-28T13:33:33;6.80;;;4.23;;
33740;SDS011;20065;48.380;10.892;2023-07-28T13:36:19;8.83;;;3.47;;
33740;SDS011;20065;48.380;10.892;2023-07-28T13:39:05;6.93;;;3.73;;
33740;SDS011;20065;48.380;10.892;2023-07-28T13:41:52;6.07;;;3.80;;
33740;SDS011;20065;48.380;10.892;2023-07-28T13:44:38;4.77;;;3.07;;
33740;SDS011;20065;48.380;10.892;2023-07-28T13:47:38;6.80;;;3.37;;
33740;SDS011;20065;48.380;10.892;2023-07-28T13:50:30;6.83;;;4.30;;
33740;SDS011;20065;48.380;10.892;2023-07-28T13:53:17;5.67;;;3.70;;
33740;SDS011;20065;48.380;10.892;2023-07-28T13:56:05;6.07;;;3.13;;
33740;SDS011;20065;48.380;10.892;2023-07-28T13:58:52;5.07;;;2.97;;
33740;SDS011;20065;48.380;10.892;2023-07-28T14:01:40;4.87;;;3.43;;
33740;SDS011;20065;48.380;10.892;2023-07-28T14:04:26;5.50;;;3.80;;
33740;SDS011;20065;48.380;10.892;2023-07-28T14:07:12;5.93;;;3.83;;
33740;SDS011;20065;48.380;10.892;2023-07-28T14:09:59;5.80;;;3.67;;
33740;SDS011;20065;48.380;10.892;2023-07-28T14:12:45;5.77;;;3.77;;
33740;SDS011;20065;48.380;10.892;2023-07-28T14:15:31;5.50;;;3.20;;
33740;SDS011;20065;48.380;10.892;2023-07-28T14:18:19;4.87;;;3.60;;
33740;SDS011;20065;48.380;10.892;2023-07-28T14:21:05;5.40;;;3.93;;
33740;SDS011;20065;48.380;10.892;2023-07-28T14:23:51;7.70;;;3.90;;
33740;SDS011;20065;48.380;10.892;2023-07-28T14:26:38;7.10;;;4.17;;
33740;SDS011;20065;48.380;10.892;2023-07-28T14:29:24;5.87;;;4.00;;
33740;SDS011;20065;48.380;10.892;2023-07-28T14:32:10;6.80;;;4.37;;
33740;SDS011;20065;48.380;10.892;2023-07-28T14:35:00;6.10;;;3.97;;
33740;SDS011;20065;48.380;10.892;2023-07-28T14:37:46;5.73;;;3.90;;
33740;SDS011;20065;48.380;10.892;2023-07-28T14:40:33;7.83;;;4.50;;
33740;SDS011;20065;48.380;10.892;2023-07-28T14:43:21;4.93;;;3.63;;
33740;SDS011;20065;48.380;10.892;2023-07-28T14:46:08;5.50;;;4.30;;
33740;SDS011;20065;48.380;10.892;2023-07-28T14:48:54;7.83;;;5.40;;
33740;SDS011;20065;48.380;10.892;2023-07-28T14:51:41;5.43;;;3.00;;
33740;SDS011;20065;48.380;10.892;2023-07-28T14:54:27;4.83;;;3.57;;
33740;SDS011;20065;48.380;10.892;2023-07-28T14:57:13;6.03;;;3.20;;
33740;SDS011;20065;48.380;10.892;2023-07-28T15:00:01;5.30;;;3.27;;
33740;SDS011;20065;48.380;10.892;2023-07-28T15:02:48;5.60;;;3.37;;
33740;SDS011;20065;48.380;10.892;2023-07-28T15:05:37;5.80;;;3.60;;
33740;SDS011;20065;48.380;10.892;2023-07-28T15:08:23;6.23;;;3.40;;
33740;SDS011;20065;48.380;10.892;2023-07-28T15:11:09;5.27;;;3.63;;
33740;SDS011;20065;48.380;10.892;2023-07-28T15:13:56;4.60;;;3.40;;
33740;SDS011;20065;48.380;10.892;2023-07-28T15:16:43;6.30;;;3.57;;
33740;SDS011;20065;48.380;10.892;2023-07-28T15:19:31;5.17;;;3.30;;
33740;SDS011;20065;48.380;10.892;2023-07-28T15:22:17;6.00;;;3.80;;
33740;SDS011;20065;48.380;10.892;2023-07-28T15:25:04;4.50;;;3.20;;
33740;SDS011;20065;48.380;10.892;2023-07-28T15:27:50;6.00;;;3.70;;
33740;SDS011;20065;48.380;10.892;2023-07-28T15:30:37;4.70;;;3.10;;
33740;SDS011;20065;48.380;10.892;2023-07-28T15:33:25;6.93;;;3.20;;
33740;SDS011;20065;48.380;10.892;2023-07-28T15:36:14;5.47;;;3.07;;
33740;SDS011;20065;48.380;10.892;2023-07-28T15:39:00;4.93;;;3.30;;
33740;SDS011;20065;48.380;10.892;2023-07-28T15:41:47;8.90;;;4.00;;
33740;SDS011;20065;48.380;10.892;2023-07-28T15:44:33;5.00;;;3.57;;
33740;SDS011;20065;48.380;10.892;2023-07-28T15:47:19;6.37;;;3.10;;
33740;SDS011;20065;48.380;10.892;2023-07-28T15:50:06;5.00;;;3.23;;
33740;SDS011;20065;48.380;10.892;2023-07-28T15:52:53;4.47;;;3.13;;
33740;SDS011;20065;48.380;10.892;2023-07-28T15:55:39;4.60;;;2.87;;
33740;SDS011;20065;48.380;10.892;2023-07-28T15:58:25;4.87;;;3.10;;
33740;SDS011;20065;48.380;10.892;2023-07-28T16:01:11;6.10;;;3.03;;
33740;SDS011;20065;48.380;10.892;2023-07-28T16:03:57;6.50;;;3.07;;
33740;SDS011;20065;48.380;10.892;2023-07-28T16:06:44;4.50;;;3.50;;
33740;SDS011;20065;48.380;10.892;2023-07-28T16:09:30;7.80;;;3.17;;
33740;SDS011;20065;48.380;10.892;2023-07-28T16:12:16;4.70;;;2.77;;
33740;SDS011;20065;48.380;10.892;2023-07-28T16:15:02;5.33;;;3.73;;
33740;SDS011;20065;48.380;10.892;2023-07-28T16:17:49;6.73;;;4.03;;
33740;SDS011;20065;48.380;10.892;2023-07-28T16:24:43;6.13;;;2.67;;
33740;SDS011;20065;48.380;10.892;2023-07-28T16:27:30;5.13;;;3.10;;
33740;SDS011;20065;48.380;10.892;2023-07-28T16:30:16;3.70;;;2.70;;
33740;SDS011;20065;48.380;10.892;2023-07-28T16:33:03;4.77;;;3.47;;
33740;SDS011;20065;48.380;10.892;2023-07-28T16:35:49;5.77;;;3.70;;
33740;SDS011;20065;48.380;10.892;2023-07-28T16:38:36;3.57;;;2.53;;
33740;SDS011;20065;48.380;10.892;2023-07-28T16:41:26;7.87;;;3.17;;
33740;SDS011;20065;48.380;10.892;2023-07-28T16:44:12;5.97;;;3.43;;
33740;SDS011;20065;48.380;10.892;2023-07-28T16:46:58;5.63;;;2.93;;
33740;SDS011;20065;48.380;10.892;2023-07-28T16:49:45;6.60;;;3.93;;
33740;SDS011;20065;48.380;10.892;2023-07-28T16:52:31;5.30;;;3.70;;
33740;SDS011;20065;48.380;10.892;2023-07-28T16:55:17;9.93;;;4.03;;
33740;SDS011;20065;48.380;10.892;2023-07-28T16:58:06;6.93;;;4.27;;
33740;SDS011;20065;48.380;10.892;2023-07-28T17:00:52;6.30;;;4.10;;